Terminal Aerodrome Forecast
Issued by NWS Charleston, WV

Current Version | Previous Version | Graphics & Text | Print | Product List | Glossary On
Versions: 1 2 3 4 5 6 7 8 9 10 11 12 13 14 15 16 17 18 19 20 21 22 23 24 25
000
FTUS41 KRLX 312123 AAA
TAFHTS
TAF AMD
KHTS 312123Z 3121/0118 VRB05KT P6SM VCTS FEW045CB
     FM312300 VRB04KT P6SM FEW045
     FM010600 00000KT 4SM BR SCT040
     FM010800 00000KT 1/4SM FG VV001
     FM011200 00000KT 3SM BR SCT050
     FM011300 00000KT P6SM SCT050=

USA.gov is the U.S. government's official web portal to all federal, state and local government web resources and services.